createdAt,value
2023-01-25T00:00:30.865Z,2.10
2023-01-25T00:02:57.870Z,2.00
2023-01-25T00:05:24.731Z,2.00
2023-01-25T00:07:51.496Z,2.00
2023-01-25T00:10:18.538Z,2.00
2023-01-25T00:12:45.250Z,2.00
2023-01-25T00:15:12.267Z,1.80
2023-01-25T00:17:39.033Z,1.80
2023-01-25T00:20:06.415Z,1.80
2023-01-25T00:22:33.441Z,1.70
2023-01-25T00:25:00.172Z,1.70
2023-01-25T00:27:26.899Z,1.70
2023-01-25T00:29:53.623Z,1.60
2023-01-25T00:32:29.322Z,1.60
2023-01-25T00:34:56.591Z,1.70
2023-01-25T00:37:43.698Z,1.70
2023-01-25T00:40:11.956Z,1.70
2023-01-25T00:42:39.245Z,1.70
2023-01-25T00:45:06.973Z,1.80
2023-01-25T00:47:33.918Z,1.80
2023-01-25T00:50:00.631Z,1.70
2023-01-25T00:52:28.653Z,1.60
2023-01-25T00:54:55.573Z,1.60
2023-01-25T00:57:22.318Z,1.60
2023-01-25T00:59:49.144Z,1.70
2023-01-25T01:02:15.925Z,1.70
2023-01-25T01:04:42.708Z,1.70
2023-01-25T01:07:12.326Z,1.70
2023-01-25T01:09:39.130Z,1.70
2023-01-25T01:12:05.926Z,1.80
2023-01-25T01:14:32.793Z,1.70
2023-01-25T01:16:59.530Z,1.60
2023-01-25T01:19:26.315Z,1.80
2023-01-25T01:21:53.050Z,1.80
2023-01-25T01:24:20.143Z,1.80
2023-01-25T01:26:47.032Z,1.80
2023-01-25T01:29:13.854Z,1.70
2023-01-25T01:31:40.815Z,1.70
2023-01-25T01:34:07.631Z,1.70
2023-01-25T01:36:34.511Z,1.70
2023-01-25T01:39:01.208Z,1.70
2023-01-25T01:41:28.182Z,1.70
2023-01-25T01:43:55.025Z,1.60
2023-01-25T01:46:27.399Z,1.50
2023-01-25T01:49:22.110Z,1.50
2023-01-25T01:52:01.376Z,1.60
2023-01-25T01:54:49.144Z,1.60
2023-01-25T01:57:21.414Z,1.80
2023-01-25T01:59:55.265Z,1.80
2023-01-25T02:02:24.987Z,1.60
2023-01-25T02:04:54.851Z,1.50
2023-01-25T02:07:28.811Z,1.60
2023-01-25T02:09:55.668Z,1.50
2023-01-25T02:12:23.804Z,1.50
2023-01-25T02:14:52.906Z,1.60
2023-01-25T02:17:39.948Z,1.60
2023-01-25T02:20:28.226Z,1.60
2023-01-25T02:22:59.953Z,1.80
2023-01-25T02:25:28.115Z,1.60
2023-01-25T02:28:06.934Z,1.50
2023-01-25T02:30:34.431Z,1.40
2023-01-25T02:33:01.379Z,1.40
2023-01-25T02:35:40.305Z,1.50
2023-01-25T02:38:08.787Z,1.50
2023-01-25T02:40:48.603Z,1.50
2023-01-25T02:43:16.779Z,1.50
2023-01-25T02:45:47.925Z,1.60
2023-01-25T02:48:14.831Z,1.50
2023-01-25T02:50:41.654Z,1.50
2023-01-25T02:53:08.491Z,1.40
2023-01-25T02:55:35.237Z,1.50
2023-01-25T02:58:01.978Z,1.50
2023-01-25T03:00:28.856Z,1.60
2023-01-25T03:02:55.737Z,1.60
2023-01-25T03:05:22.607Z,1.60
2023-01-25T03:07:49.403Z,1.60
2023-01-25T03:10:16.392Z,1.60
2023-01-25T03:12:43.208Z,1.60
2023-01-25T03:15:10.528Z,1.70
2023-01-25T03:17:37.351Z,1.70
2023-01-25T03:20:06.132Z,1.60
2023-01-25T03:22:32.959Z,1.60
2023-01-25T03:24:59.746Z,1.70
2023-01-25T03:27:26.461Z,1.70
2023-01-25T03:29:53.168Z,1.90
2023-01-25T03:32:20.019Z,1.70
2023-01-25T03:34:46.892Z,1.70
2023-01-25T03:37:13.697Z,1.60
2023-01-25T03:39:41.035Z,1.60
2023-01-25T03:42:08.010Z,1.50
2023-01-25T03:44:34.802Z,1.60
2023-01-25T03:47:01.803Z,1.60
2023-01-25T03:49:28.718Z,1.60
2023-01-25T03:51:58.027Z,1.70
2023-01-25T03:54:24.896Z,1.70
2023-01-25T03:56:51.619Z,1.60
2023-01-25T03:59:18.524Z,1.70
2023-01-25T04:01:45.310Z,1.60
2023-01-25T04:04:12.094Z,1.50
2023-01-25T04:06:39.105Z,1.40
2023-01-25T04:09:06.728Z,1.50
2023-01-25T04:11:33.460Z,1.40
2023-01-25T04:14:00.255Z,1.60
2023-01-25T04:16:27.978Z,1.50
2023-01-25T04:18:54.729Z,1.60
2023-01-25T04:21:21.498Z,1.50
2023-01-25T04:23:48.280Z,1.40
2023-01-25T04:26:15.671Z,1.40
2023-01-25T04:28:42.567Z,1.40
2023-01-25T04:31:09.373Z,1.40
2023-01-25T04:33:36.086Z,1.40
2023-01-25T04:36:03.013Z,1.40
2023-01-25T04:38:29.770Z,1.30
2023-01-25T04:40:56.521Z,1.40
2023-01-25T04:43:23.458Z,1.40
2023-01-25T04:45:50.273Z,1.40
2023-01-25T04:48:17.111Z,1.40
2023-01-25T04:50:45.419Z,1.40
2023-01-25T04:53:13.017Z,1.50
2023-01-25T04:55:40.082Z,1.40
2023-01-25T04:58:06.925Z,1.50
2023-01-25T05:00:33.723Z,1.50
2023-01-25T05:03:00.607Z,1.50
2023-01-25T05:05:27.400Z,1.50
2023-01-25T05:07:54.206Z,1.40
2023-01-25T05:10:21.088Z,1.40
2023-01-25T05:12:47.886Z,1.50
2023-01-25T05:15:15.274Z,1.40
2023-01-25T05:17:42.065Z,1.40
2023-01-25T05:20:09.558Z,1.40
2023-01-25T05:22:36.314Z,1.30
2023-01-25T05:25:06.288Z,1.40
2023-01-25T05:27:33.120Z,1.40
2023-01-25T05:29:59.822Z,1.20
2023-01-25T05:32:26.625Z,1.20
2023-01-25T05:34:53.367Z,1.20
2023-01-25T05:37:21.586Z,1.30
2023-01-25T05:39:48.431Z,1.30
2023-01-25T05:42:18.039Z,1.40
2023-01-25T05:44:47.456Z,1.40
2023-01-25T05:47:16.930Z,1.30
2023-01-25T05:49:43.775Z,1.20
2023-01-25T05:52:17.386Z,1.20
2023-01-25T05:54:44.277Z,1.20
2023-01-25T05:57:11.406Z,1.20
2023-01-25T05:59:38.166Z,1.10
2023-01-25T06:02:04.999Z,1.20
2023-01-25T06:04:31.816Z,1.20
2023-01-25T06:06:58.556Z,1.20
2023-01-25T06:09:26.345Z,1.10
2023-01-25T06:11:53.232Z,1.20
2023-01-25T06:14:20.006Z,1.00
2023-01-25T06:16:46.675Z,1.10
2023-01-25T06:19:14.240Z,1.20
2023-01-25T06:21:41.054Z,0.90
2023-01-25T06:24:08.159Z,0.90
2023-01-25T06:26:34.982Z,1.00
2023-01-25T06:29:01.721Z,1.00
2023-01-25T06:31:28.582Z,0.90
2023-01-25T06:33:55.355Z,1.00
2023-01-25T06:36:22.793Z,1.10
2023-01-25T06:38:51.609Z,1.10
2023-01-25T06:41:19.737Z,1.00
2023-01-25T06:43:47.966Z,1.10
2023-01-25T06:46:14.960Z,1.10
2023-01-25T06:48:43.084Z,1.10
2023-01-25T06:51:15.086Z,1.10
2023-01-25T06:53:44.288Z,1.10
2023-01-25T06:56:17.838Z,1.10
2023-01-25T06:58:45.349Z,1.10
2023-01-25T07:01:20.952Z,1.00
2023-01-25T07:03:52.927Z,1.10
2023-01-25T07:06:20.011Z,1.00
2023-01-25T07:08:47.279Z,0.90
2023-01-25T07:11:15.110Z,1.10
2023-01-25T07:13:45.554Z,1.20
2023-01-25T07:16:19.207Z,1.10
2023-01-25T07:18:46.731Z,1.10
2023-01-25T07:21:24.077Z,1.10
2023-01-25T07:23:51.722Z,1.30
2023-01-25T07:26:24.089Z,1.30
2023-01-25T07:28:52.047Z,1.20
2023-01-25T07:31:19.869Z,1.10
2023-01-25T07:33:51.667Z,1.10
2023-01-25T07:36:19.292Z,1.10
2023-01-25T07:38:46.712Z,1.20
2023-01-25T07:41:13.501Z,1.20
2023-01-25T07:43:40.561Z,1.20
2023-01-25T07:46:12.817Z,1.20
2023-01-25T07:48:41.460Z,1.20
2023-01-25T07:51:11.663Z,1.20
2023-01-25T07:53:43.319Z,1.10
2023-01-25T07:56:11.921Z,1.20
2023-01-25T07:58:39.431Z,1.20
2023-01-25T08:01:11.290Z,1.20
2023-01-25T08:03:38.619Z,1.30
2023-01-25T08:06:06.412Z,1.20
2023-01-25T08:08:34.751Z,1.20
2023-01-25T08:11:26.524Z,1.30
2023-01-25T08:13:53.474Z,1.20
2023-01-25T08:16:23.099Z,1.10
2023-01-25T08:18:51.741Z,1.10
2023-01-25T08:21:18.885Z,1.20
2023-01-25T08:23:46.062Z,1.20
2023-01-25T08:26:14.867Z,1.20
2023-01-25T08:28:41.680Z,1.20
2023-01-25T08:31:11.042Z,1.40
2023-01-25T08:33:38.185Z,1.40
2023-01-25T08:36:06.277Z,1.30
2023-01-25T08:38:33.118Z,1.40
2023-01-25T08:41:25.366Z,1.40
2023-01-25T08:43:53.987Z,1.40
2023-01-25T08:46:21.862Z,1.30
2023-01-25T08:48:48.846Z,1.20
2023-01-25T08:51:16.985Z,1.30
2023-01-25T08:53:43.911Z,1.40
2023-01-25T08:56:12.969Z,1.40
2023-01-25T08:58:45.354Z,1.50
2023-01-25T09:01:14.021Z,1.50
2023-01-25T09:03:51.124Z,1.50
2023-01-25T09:06:19.867Z,1.50
2023-01-25T09:08:47.264Z,1.40
2023-01-25T09:11:17.193Z,1.30
2023-01-25T09:13:44.456Z,1.40
2023-01-25T09:16:18.008Z,1.40
2023-01-25T09:18:45.376Z,1.50
2023-01-25T09:21:17.946Z,1.20
2023-01-25T09:24:05.694Z,1.10
2023-01-25T09:26:35.271Z,1.20
2023-01-25T09:29:02.145Z,1.30
2023-01-25T09:31:30.472Z,1.20
2023-01-25T09:33:58.465Z,1.20
2023-01-25T09:36:25.847Z,1.20
2023-01-25T09:38:52.842Z,1.30
2023-01-25T09:41:31.753Z,1.40
2023-01-25T09:44:29.769Z,1.40
2023-01-25T09:47:04.696Z,1.50
2023-01-25T09:49:43.948Z,1.40
2023-01-25T09:52:48.326Z,1.40
2023-01-25T09:55:19.014Z,1.30
2023-01-25T09:57:48.211Z,1.40
2023-01-25T10:00:49.856Z,1.40
2023-01-25T10:03:27.538Z,1.40
2023-01-25T10:05:58.682Z,1.30
2023-01-25T10:08:29.858Z,1.40
2023-01-25T10:11:23.390Z,1.50
2023-01-25T10:13:50.648Z,1.40
2023-01-25T10:16:46.006Z,1.60
2023-01-25T10:19:43.940Z,1.40
2023-01-25T10:22:24.401Z,1.40
2023-01-25T10:25:18.668Z,1.50
2023-01-25T10:28:13.056Z,1.50
2023-01-25T10:30:46.993Z,1.50
2023-01-25T10:33:17.611Z,1.50
2023-01-25T10:35:47.495Z,1.50
2023-01-25T10:38:24.922Z,1.50
2023-01-25T10:41:04.484Z,1.40
2023-01-25T10:43:31.476Z,1.30
2023-01-25T10:45:58.297Z,1.40
2023-01-25T10:48:31.135Z,1.10
2023-01-25T10:50:57.867Z,1.30
2023-01-25T10:53:39.348Z,1.30
2023-01-25T10:56:12.011Z,1.20
2023-01-25T10:58:46.148Z,1.30
2023-01-25T11:01:25.466Z,1.20
2023-01-25T11:03:52.334Z,1.20
2023-01-25T11:06:35.770Z,1.10
2023-01-25T11:09:22.455Z,1.20
2023-01-25T11:11:55.690Z,1.30
2023-01-25T11:14:27.125Z,1.30
2023-01-25T11:16:55.364Z,1.30
2023-01-25T11:19:31.509Z,1.40
2023-01-25T11:21:59.968Z,1.40
2023-01-25T11:24:32.219Z,1.30
2023-01-25T11:27:22.651Z,1.20
2023-01-25T11:30:18.961Z,1.40
2023-01-25T11:32:45.824Z,1.60
2023-01-25T11:35:19.492Z,1.50
2023-01-25T11:38:19.493Z,1.50
2023-01-25T11:40:53.034Z,1.50
2023-01-25T11:43:38.393Z,1.60
2023-01-25T11:46:34.105Z,1.70
2023-01-25T11:49:18.222Z,1.60
2023-01-25T11:51:56.699Z,1.60
2023-01-25T11:54:23.571Z,1.50
2023-01-25T11:57:10.064Z,1.20
2023-01-25T11:59:50.536Z,1.10
2023-01-25T12:02:23.601Z,1.10
2023-01-25T12:05:21.213Z,1.20
2023-01-25T12:08:03.055Z,1.20
2023-01-25T12:10:51.500Z,1.10
2023-01-25T12:13:33.205Z,1.10
2023-01-25T12:16:13.753Z,1.10
2023-01-25T12:18:58.577Z,1.30
2023-01-25T12:21:40.443Z,1.10
2023-01-25T12:24:22.259Z,1.10
2023-01-25T12:27:15.071Z,1.20
2023-01-25T12:29:51.104Z,1.10
2023-01-25T12:32:45.568Z,1.20
2023-01-25T12:35:37.582Z,1.20
2023-01-25T12:38:13.613Z,1.20
2023-01-25T12:41:05.564Z,1.20
2023-01-25T12:43:46.485Z,1.40
2023-01-25T12:46:26.626Z,1.40
2023-01-25T12:48:58.581Z,1.30
2023-01-25T12:51:34.255Z,1.30
2023-01-25T12:54:07.005Z,1.40
2023-01-25T12:56:44.059Z,1.40
2023-01-25T12:59:16.830Z,1.60
2023-01-25T13:01:54.024Z,1.40
2023-01-25T13:04:30.039Z,1.60
2023-01-25T13:07:20.251Z,1.70
2023-01-25T13:10:12.452Z,1.60
2023-01-25T13:12:52.974Z,1.40
2023-01-25T13:15:37.445Z,1.30
2023-01-25T13:18:29.542Z,1.40
2023-01-25T13:20:58.415Z,1.30
2023-01-25T13:23:50.985Z,1.40
2023-01-25T13:26:28.464Z,1.40
2023-01-25T13:29:01.591Z,1.30
2023-01-25T13:31:58.925Z,1.20
2023-01-25T13:34:42.426Z,1.10
2023-01-25T13:37:31.509Z,1.40
2023-01-25T13:40:05.703Z,1.30
2023-01-25T13:42:38.328Z,1.30
2023-01-25T13:45:08.536Z,1.40
2023-01-25T13:47:38.240Z,1.40
2023-01-25T13:50:25.760Z,1.40
2023-01-25T13:53:18.487Z,1.50
2023-01-25T13:55:49.042Z,1.50
2023-01-25T13:58:21.906Z,1.40
2023-01-25T14:00:54.602Z,1.40
2023-01-25T14:03:34.109Z,1.30
2023-01-25T14:06:02.973Z,1.40
2023-01-25T14:08:31.277Z,1.30
2023-01-25T14:10:58.544Z,1.20
2023-01-25T14:13:25.633Z,1.40
2023-01-25T14:15:58.521Z,1.60
2023-01-25T14:18:31.061Z,1.50
2023-01-25T14:21:19.543Z,1.40
2023-01-25T14:23:48.928Z,1.40
2023-01-25T14:26:26.814Z,1.40
2023-01-25T14:29:01.351Z,1.20
2023-01-25T14:31:35.482Z,1.20
2023-01-25T14:34:04.969Z,1.20
2023-01-25T14:36:34.741Z,1.00
2023-01-25T14:39:04.505Z,1.20
2023-01-25T14:41:39.996Z,1.30
2023-01-25T14:44:12.989Z,1.40
2023-01-25T14:46:41.507Z,1.20
2023-01-25T14:49:25.655Z,1.20
2023-01-25T14:52:13.607Z,1.30
2023-01-25T14:54:53.018Z,1.20
2023-01-25T14:57:25.875Z,1.20
2023-01-25T14:59:54.753Z,1.20
2023-01-25T15:02:47.261Z,1.20
2023-01-25T15:05:29.861Z,1.30
2023-01-25T15:07:58.915Z,1.20
2023-01-25T15:10:31.047Z,1.10
2023-01-25T15:13:25.646Z,1.10
2023-01-25T15:16:00.818Z,1.00
2023-01-25T15:18:55.799Z,1.00
2023-01-25T15:21:26.724Z,1.10
2023-01-25T15:23:55.350Z,1.00
2023-01-25T15:26:23.603Z,1.20
2023-01-25T15:28:52.741Z,1.30
2023-01-25T15:31:31.172Z,1.10
2023-01-25T15:34:00.298Z,1.00
2023-01-25T15:36:27.872Z,1.00
2023-01-25T15:38:54.755Z,1.00
2023-01-25T15:41:21.844Z,1.00
2023-01-25T15:43:49.819Z,0.90
2023-01-25T15:46:28.573Z,0.90
2023-01-25T15:48:56.639Z,0.80
2023-01-25T15:51:23.669Z,0.90
2023-01-25T15:53:50.995Z,0.80
2023-01-25T15:56:28.806Z,0.80
2023-01-25T15:59:01.569Z,0.70
2023-01-25T16:01:29.368Z,0.80
2023-01-25T16:03:57.491Z,0.90
2023-01-25T16:06:35.881Z,0.90
2023-01-25T16:09:13.074Z,0.80
2023-01-25T16:11:39.929Z,0.90
2023-01-25T16:14:06.766Z,0.70
2023-01-25T16:16:38.095Z,0.70
2023-01-25T16:19:05.154Z,0.90
2023-01-25T16:21:32.191Z,0.70
2023-01-25T16:23:59.173Z,0.70
2023-01-25T16:26:29.336Z,0.60
2023-01-25T16:28:56.572Z,0.50
2023-01-25T16:31:32.412Z,0.60
2023-01-25T16:34:01.819Z,0.70
2023-01-25T16:36:29.532Z,0.60
2023-01-25T16:38:56.480Z,0.60
2023-01-25T16:41:23.268Z,0.70
2023-01-25T16:43:50.226Z,0.60
2023-01-25T16:46:22.666Z,0.60
2023-01-25T16:48:52.368Z,0.70
2023-01-25T16:51:23.428Z,0.60
2023-01-25T16:53:52.180Z,0.70
2023-01-25T16:56:27.702Z,0.80
2023-01-25T16:58:57.117Z,0.80
2023-01-25T17:01:25.175Z,0.80
2023-01-25T17:03:52.132Z,0.60
2023-01-25T17:06:23.145Z,0.50
2023-01-25T17:08:50.885Z,0.60
2023-01-25T17:11:22.143Z,0.70
2023-01-25T17:13:54.202Z,0.70
2023-01-25T17:16:23.745Z,0.70
2023-01-25T17:18:57.189Z,0.70
2023-01-25T17:21:24.652Z,0.60
2023-01-25T17:23:51.950Z,0.50
2023-01-25T17:26:21.048Z,0.50
2023-01-25T17:28:47.976Z,0.60
2023-01-25T17:31:26.841Z,0.40
2023-01-25T17:33:55.146Z,0.30
2023-01-25T17:36:22.361Z,0.20
2023-01-25T17:38:49.553Z,0.30
2023-01-25T17:41:17.415Z,0.30
2023-01-25T17:43:44.526Z,0.30
2023-01-25T17:46:26.160Z,0.20
2023-01-25T17:48:53.672Z,0.30
2023-01-25T17:51:22.268Z,0.20
2023-01-25T17:53:50.430Z,0.40
2023-01-25T17:56:19.030Z,0.50
2023-01-25T17:58:46.288Z,0.40
2023-01-25T18:01:21.902Z,0.50
2023-01-25T18:03:51.020Z,0.40
2023-01-25T18:06:21.584Z,0.30
2023-01-25T18:08:50.241Z,0.40
2023-01-25T18:11:25.890Z,0.50
2023-01-25T18:13:57.918Z,0.50
2023-01-25T18:16:26.535Z,0.40
2023-01-25T18:18:54.764Z,0.30
2023-01-25T18:21:26.962Z,0.40
2023-01-25T18:23:56.662Z,0.40
2023-01-25T18:26:27.432Z,0.40
2023-01-25T18:28:58.937Z,0.20
2023-01-25T18:31:26.125Z,0.30
2023-01-25T18:33:53.006Z,0.40
2023-01-25T18:36:20.473Z,0.60
2023-01-25T18:38:47.243Z,0.40
2023-01-25T18:41:14.068Z,0.30
2023-01-25T18:43:40.881Z,0.40
2023-01-25T18:46:08.801Z,0.30
2023-01-25T18:48:36.347Z,0.30
2023-01-25T18:51:12.935Z,0.10
2023-01-25T18:53:43.894Z,0.10
2023-01-25T18:56:20.641Z,0.20
2023-01-25T18:58:50.156Z,0.10
2023-01-25T19:01:22.281Z,0.20
2023-01-25T19:03:50.262Z,0.30
2023-01-25T19:06:18.899Z,0.20
2023-01-25T19:08:49.779Z,0.40
2023-01-25T19:11:21.975Z,0.40
2023-01-25T19:13:49.837Z,0.40
2023-01-25T19:16:19.817Z,0.40
2023-01-25T19:18:50.089Z,0.30
2023-01-25T19:21:27.908Z,0.20
2023-01-25T19:23:56.043Z,0.20
2023-01-25T19:26:27.475Z,0.10
2023-01-25T19:28:54.966Z,0.10
2023-01-25T19:31:26.449Z,0.30
2023-01-25T19:34:05.360Z,0.20
2023-01-25T19:36:38.852Z,0.20
2023-01-25T19:39:10.151Z,0.10
2023-01-25T19:41:40.198Z,0.00
2023-01-25T19:44:09.573Z,0.00
2023-01-25T19:46:37.333Z,0.00
2023-01-25T19:49:08.070Z,-0.10
2023-01-25T19:51:37.703Z,0.00
2023-01-25T19:54:07.040Z,0.00
2023-01-25T19:56:36.880Z,-0.10
2023-01-25T19:59:05.878Z,-0.10
2023-01-25T20:01:35.208Z,-0.10
2023-01-25T20:04:04.189Z,0.00
2023-01-25T20:06:30.940Z,-0.10
2023-01-25T20:08:57.987Z,0.00
2023-01-25T20:11:27.158Z,0.00
2023-01-25T20:14:00.166Z,0.00
2023-01-25T20:16:28.189Z,-0.20
2023-01-25T20:18:56.693Z,-0.20
2023-01-25T20:21:25.093Z,-0.30
2023-01-25T20:23:56.126Z,-0.30
2023-01-25T20:26:26.184Z,-0.10
2023-01-25T20:28:54.288Z,-0.10
2023-01-25T20:31:21.098Z,-0.20
2023-01-25T20:33:48.875Z,-0.10
2023-01-25T20:36:16.324Z,0.00
2023-01-25T20:38:43.748Z,-0.10
2023-01-25T20:41:15.885Z,0.00
2023-01-25T20:44:01.984Z,0.10
2023-01-25T20:46:33.847Z,0.00
2023-01-25T20:49:05.674Z,0.00
2023-01-25T20:51:33.681Z,0.00
2023-01-25T20:54:00.928Z,0.00
2023-01-25T20:56:28.478Z,-0.20
2023-01-25T20:58:55.529Z,-0.10
2023-01-25T21:01:30.972Z,-0.20
2023-01-25T21:03:58.461Z,-0.20
2023-01-25T21:06:27.503Z,-0.20
2023-01-25T21:08:54.610Z,-0.20
2023-01-25T21:11:23.157Z,-0.20
2023-01-25T21:13:49.977Z,0.00
2023-01-25T21:16:21.603Z,0.00
2023-01-25T21:18:54.494Z,-0.10
2023-01-25T21:21:27.756Z,-0.30
2023-01-25T21:23:57.642Z,-0.50
2023-01-25T21:26:27.510Z,-0.50
2023-01-25T21:28:55.138Z,-0.40
2023-01-25T21:31:30.825Z,-0.30
2023-01-25T21:33:57.586Z,-0.30
2023-01-25T21:36:25.040Z,-0.30
2023-01-25T21:38:53.907Z,-0.50
2023-01-25T21:41:21.957Z,-0.40
2023-01-25T21:44:08.173Z,-0.30
2023-01-25T21:46:34.999Z,-0.20
2023-01-25T21:49:26.006Z,-0.40
2023-01-25T21:51:54.387Z,-0.40
2023-01-25T21:54:26.459Z,-0.50
2023-01-25T21:56:56.087Z,-0.30
2023-01-25T21:59:23.287Z,-0.40
2023-01-25T22:01:51.219Z,-0.30
2023-01-25T22:04:19.537Z,-0.30
2023-01-25T22:06:48.733Z,-0.30
2023-01-25T22:09:16.036Z,-0.30
2023-01-25T22:11:45.866Z,-0.40
2023-01-25T22:14:16.012Z,-0.50
2023-01-25T22:16:42.854Z,-0.60
2023-01-25T22:19:09.647Z,-0.50
2023-01-25T22:21:36.424Z,-0.40
2023-01-25T22:24:05.506Z,-0.40
2023-01-25T22:27:02.535Z,-0.30
2023-01-25T22:29:29.976Z,-0.50
2023-01-25T22:31:56.900Z,-0.50
2023-01-25T22:34:23.796Z,-0.40
2023-01-25T22:36:50.654Z,-0.30
2023-01-25T22:39:17.431Z,-0.40
2023-01-25T22:41:44.350Z,-0.50
2023-01-25T22:44:11.442Z,-0.70
2023-01-25T22:46:38.347Z,-0.60
2023-01-25T22:49:05.483Z,-0.70
2023-01-25T22:51:32.718Z,-0.70
2023-01-25T22:54:00.330Z,-0.60
2023-01-25T22:56:34.029Z,-0.60
2023-01-25T22:59:01.509Z,-0.70
2023-01-25T23:01:33.793Z,-0.60
2023-01-25T23:04:01.915Z,-0.60
2023-01-25T23:06:31.248Z,-0.40
2023-01-25T23:09:03.496Z,-0.30
2023-01-25T23:11:35.406Z,-0.20
2023-01-25T23:14:21.815Z,-0.60
2023-01-25T23:16:48.636Z,-0.50
2023-01-25T23:19:15.573Z,-0.50
2023-01-25T23:21:42.525Z,-0.60
2023-01-25T23:24:09.959Z,-0.70
2023-01-25T23:26:46.236Z,-0.50
2023-01-25T23:29:14.354Z,-0.60
2023-01-25T23:31:41.173Z,-0.40
2023-01-25T23:34:07.949Z,-0.50
2023-01-25T23:36:41.819Z,-0.40
2023-01-25T23:39:11.766Z,-0.40
2023-01-25T23:41:38.554Z,-0.50
2023-01-25T23:44:05.660Z,-0.50
2023-01-25T23:46:32.481Z,-0.50
2023-01-25T23:48:59.269Z,-0.50
2023-01-25T23:51:26.090Z,-0.50
2023-01-25T23:53:53.513Z,-0.40
2023-01-25T23:56:21.739Z,-0.50
2023-01-25T23:58:49.083Z,-0.50
